createdAt,value
2023-03-04T00:00:31.511Z,100440.16
2023-03-04T00:03:18.623Z,100450.75
2023-03-04T00:05:45.465Z,100448.03
2023-03-04T00:08:12.660Z,100445.63
2023-03-04T00:10:39.452Z,100444.16
2023-03-04T00:13:06.541Z,100443.22
2023-03-04T00:15:33.315Z,100442.44
2023-03-04T00:18:00.343Z,100440.91
2023-03-04T00:20:27.185Z,100445.94
2023-03-04T00:22:54.371Z,100445.34
2023-03-04T00:25:21.218Z,100442.78
2023-03-04T00:27:48.507Z,100436.72
2023-03-04T00:30:15.438Z,100435.91
2023-03-04T00:32:42.519Z,100424.81
2023-03-04T00:35:09.684Z,100432.38
2023-03-04T00:37:36.770Z,100432.19
2023-03-04T00:40:04.042Z,100435.59
2023-03-04T00:42:31.056Z,100435.53
2023-03-04T00:44:57.898Z,100440.66
2023-03-04T00:47:24.969Z,100437.03
2023-03-04T00:49:51.780Z,100432.25
2023-03-04T00:52:18.827Z,100426.31
2023-03-04T00:54:46.081Z,100423.69
2023-03-04T00:57:13.143Z,100418.44
2023-03-04T00:59:40.833Z,100421.94
2023-03-04T01:02:11.218Z,100422.00
2023-03-04T01:04:38.442Z,100420.25
2023-03-04T01:07:05.586Z,100420.09
2023-03-04T01:09:32.399Z,100416.75
2023-03-04T01:11:59.607Z,100407.47
2023-03-04T01:14:26.705Z,100417.78
2023-03-04T01:16:53.795Z,100409.59
2023-03-04T01:19:20.981Z,100411.16
2023-03-04T01:21:48.006Z,100414.53
2023-03-04T01:24:14.845Z,100413.34
2023-03-04T01:26:41.872Z,100410.38
2023-03-04T01:29:08.624Z,100406.16
2023-03-04T01:31:35.912Z,100402.59
2023-03-04T01:34:02.704Z,100398.19
2023-03-04T01:36:29.744Z,100396.59
2023-03-04T01:38:56.511Z,100382.47
2023-03-04T01:41:26.189Z,100386.44
2023-03-04T01:43:56.412Z,100383.88
2023-03-04T01:46:24.699Z,100394.19
2023-03-04T01:48:51.591Z,100381.16
2023-03-04T01:51:21.096Z,100381.16
2023-03-04T01:53:54.935Z,100383.06
2023-03-04T01:56:28.244Z,100376.28
2023-03-04T01:59:19.761Z,100376.50
2023-03-04T02:01:52.891Z,100370.44
2023-03-04T02:04:23.508Z,100364.16
2023-03-04T02:06:51.979Z,100367.78
2023-03-04T02:09:20.125Z,100364.50
2023-03-04T02:11:49.212Z,100369.66
2023-03-04T02:14:17.501Z,100369.88
2023-03-04T02:16:45.140Z,100363.59
2023-03-04T02:19:46.496Z,100363.91
2023-03-04T02:22:13.568Z,100359.56
2023-03-04T02:24:48.546Z,100355.72
2023-03-04T02:27:15.732Z,100351.56
2023-03-04T02:29:42.503Z,100351.91
2023-03-04T02:32:12.427Z,100345.84
2023-03-04T02:34:46.302Z,100343.69
2023-03-04T02:37:13.883Z,100348.41
2023-03-04T02:39:43.438Z,100347.59
2023-03-04T02:42:10.825Z,100335.84
2023-03-04T02:44:43.556Z,100343.50
2023-03-04T02:47:11.248Z,100335.91
2023-03-04T02:49:40.464Z,100333.63
2023-03-04T02:52:27.706Z,100331.22
2023-03-04T02:54:54.508Z,100326.31
2023-03-04T02:57:21.561Z,100331.53
2023-03-04T02:59:48.362Z,100333.34
2023-03-04T03:02:15.450Z,100332.38
2023-03-04T03:04:42.361Z,100336.03
2023-03-04T03:07:09.479Z,100337.28
2023-03-04T03:09:36.296Z,100333.47
2023-03-04T03:12:03.478Z,100326.88
2023-03-04T03:14:30.420Z,100320.13
2023-03-04T03:16:57.466Z,100314.63
2023-03-04T03:19:24.265Z,100320.97
2023-03-04T03:21:51.330Z,100310.63
2023-03-04T03:24:18.154Z,100312.28
2023-03-04T03:26:45.204Z,100314.94
2023-03-04T03:29:11.988Z,100304.66
2023-03-04T03:31:39.171Z,100310.88
2023-03-04T03:34:05.982Z,100301.28
2023-03-04T03:36:33.117Z,100307.38
2023-03-04T03:38:59.900Z,100311.81
2023-03-04T03:41:26.940Z,100306.72
2023-03-04T03:43:53.736Z,100307.56
2023-03-04T03:46:20.773Z,100311.72
2023-03-04T03:48:47.537Z,100301.31
2023-03-04T03:51:15.386Z,100300.34
2023-03-04T03:53:42.158Z,100297.06
2023-03-04T03:56:09.221Z,100299.75
2023-03-04T03:58:35.982Z,100298.00
2023-03-04T04:01:03.161Z,100298.94
2023-03-04T04:03:30.038Z,100295.41
2023-03-04T04:05:57.085Z,100302.53
2023-03-04T04:08:23.870Z,100299.25
2023-03-04T04:10:50.907Z,100303.78
2023-03-04T04:13:17.705Z,100304.44
2023-03-04T04:15:44.910Z,100295.13
2023-03-04T04:18:11.697Z,100303.53
2023-03-04T04:20:38.758Z,100306.16
2023-03-04T04:23:05.613Z,100307.19
2023-03-04T04:25:32.644Z,100300.03
2023-03-04T04:27:59.580Z,100296.63
2023-03-04T04:30:26.683Z,100308.03
2023-03-04T04:32:53.424Z,100312.47
2023-03-04T04:35:20.848Z,100297.00
2023-03-04T04:37:47.660Z,100298.66
2023-03-04T04:40:14.854Z,100304.75
2023-03-04T04:42:41.623Z,100301.53
2023-03-04T04:45:09.232Z,100298.84
2023-03-04T04:47:36.110Z,100301.53
2023-03-04T04:50:03.247Z,100294.72
2023-03-04T04:52:30.044Z,100296.44
2023-03-04T04:54:57.176Z,100299.78
2023-03-04T04:57:24.145Z,100292.94
2023-03-04T04:59:51.343Z,100296.47
2023-03-04T05:02:18.197Z,100295.50
2023-03-04T05:04:45.293Z,100292.16
2023-03-04T05:07:12.165Z,100291.28
2023-03-04T05:09:39.232Z,100293.88
2023-03-04T05:12:06.127Z,100296.75
2023-03-04T05:14:33.146Z,100292.63
2023-03-04T05:16:59.942Z,100294.09
2023-03-04T05:19:27.464Z,100296.81
2023-03-04T05:21:54.323Z,100297.50
2023-03-04T05:24:21.562Z,100302.56
2023-03-04T05:26:48.432Z,100305.16
2023-03-04T05:29:15.561Z,100289.53
2023-03-04T05:31:42.371Z,100299.00
2023-03-04T05:34:09.399Z,100298.09
2023-03-04T05:36:36.201Z,100304.19
2023-03-04T05:39:03.538Z,100296.47
2023-03-04T05:41:30.445Z,100303.47
2023-03-04T05:43:57.658Z,100301.00
2023-03-04T05:46:25.702Z,100305.16
2023-03-04T05:48:54.043Z,100299.16
2023-03-04T05:51:22.769Z,100305.94
2023-03-04T05:53:50.336Z,100308.31
2023-03-04T05:56:19.844Z,100304.81
2023-03-04T05:58:50.065Z,100312.31
2023-03-04T06:01:17.123Z,100314.03
2023-03-04T06:03:44.711Z,100313.94
2023-03-04T06:06:11.563Z,100312.25
2023-03-04T06:08:38.708Z,100324.16
2023-03-04T06:11:06.636Z,100326.56
2023-03-04T06:13:36.751Z,100321.88
2023-03-04T06:16:03.840Z,100323.56
2023-03-04T06:18:31.037Z,100318.22
2023-03-04T06:20:59.897Z,100324.28
2023-03-04T06:23:28.039Z,100328.44
2023-03-04T06:25:56.858Z,100324.94
2023-03-04T06:28:24.728Z,100329.84
2023-03-04T06:30:56.358Z,100331.47
2023-03-04T06:33:24.061Z,100331.06
2023-03-04T06:35:57.630Z,100330.00
2023-03-04T06:38:25.897Z,100335.00
2023-03-04T06:40:55.410Z,100338.31
2023-03-04T06:43:24.198Z,100346.06
2023-03-04T06:45:51.132Z,100346.69
2023-03-04T06:48:18.243Z,100345.75
2023-03-04T06:50:45.034Z,100337.81
2023-03-04T06:53:12.069Z,100337.75
2023-03-04T06:55:38.842Z,100339.00
2023-03-04T06:58:05.990Z,100329.38
2023-03-04T07:00:32.861Z,100339.56
2023-03-04T07:03:00.881Z,100331.63
2023-03-04T07:05:27.991Z,100336.00
2023-03-04T07:07:55.246Z,100341.72
2023-03-04T07:10:22.281Z,100340.59
2023-03-04T07:12:49.409Z,100337.22
2023-03-04T07:15:16.435Z,100340.50
2023-03-04T07:17:43.588Z,100330.94
2023-03-04T07:20:10.950Z,100335.84
2023-03-04T07:22:38.052Z,100331.22
2023-03-04T07:25:06.345Z,100329.22
2023-03-04T07:27:33.618Z,100334.25
2023-03-04T07:30:00.805Z,100330.88
2023-03-04T07:32:27.904Z,100333.63
2023-03-04T07:34:54.680Z,100333.19
2023-03-04T07:37:21.858Z,100324.53
2023-03-04T07:39:48.645Z,100318.25
2023-03-04T07:42:15.670Z,100321.53
2023-03-04T07:44:42.440Z,100319.69
2023-03-04T07:47:09.500Z,100315.81
2023-03-04T07:49:37.263Z,100325.09
2023-03-04T07:52:05.263Z,100318.66
2023-03-04T07:54:32.483Z,100320.19
2023-03-04T07:56:59.518Z,100309.75
2023-03-04T07:59:26.286Z,100319.47
2023-03-04T08:01:53.359Z,100318.50
2023-03-04T08:04:20.231Z,100322.09
2023-03-04T08:06:48.790Z,100325.31
2023-03-04T08:09:15.702Z,100323.50
2023-03-04T08:11:42.808Z,100327.19
2023-03-04T08:14:12.114Z,100325.44
2023-03-04T08:16:39.368Z,100327.88
2023-03-04T08:19:06.960Z,100331.75
2023-03-04T08:21:34.858Z,100326.94
2023-03-04T08:24:08.186Z,100322.22
2023-03-04T08:26:41.329Z,100324.19
2023-03-04T08:29:12.351Z,100323.00
2023-03-04T08:31:39.663Z,100319.09
2023-03-04T08:34:08.571Z,100321.78
2023-03-04T08:36:36.402Z,100319.41
2023-03-04T08:39:04.373Z,100316.53
2023-03-04T08:41:31.774Z,100319.75
2023-03-04T08:44:00.080Z,100314.81
2023-03-04T08:46:27.415Z,100306.78
2023-03-04T08:48:54.310Z,100313.50
2023-03-04T08:51:21.773Z,100306.25
2023-03-04T08:53:48.526Z,100313.47
2023-03-04T08:56:16.172Z,100298.84
2023-03-04T08:58:43.027Z,100287.97
2023-03-04T09:01:12.734Z,100288.09
2023-03-04T09:03:40.734Z,100288.63
2023-03-04T09:06:09.367Z,100290.72
2023-03-04T09:08:36.907Z,100285.63
2023-03-04T09:11:04.369Z,100287.09
2023-03-04T09:13:31.659Z,100282.09
2023-03-04T09:15:59.262Z,100281.25
2023-03-04T09:18:26.827Z,100276.09
2023-03-04T09:20:54.478Z,100285.53
2023-03-04T09:23:21.996Z,100280.41
2023-03-04T09:25:49.874Z,100285.25
2023-03-04T09:28:18.012Z,100277.97
2023-03-04T09:30:45.484Z,100280.31
2023-03-04T09:33:13.549Z,100286.44
2023-03-04T09:35:41.234Z,100277.56
2023-03-04T09:38:08.693Z,100277.47
2023-03-04T09:40:43.470Z,100270.69
2023-03-04T09:43:29.502Z,100288.44
2023-03-04T09:46:05.366Z,100269.56
2023-03-04T09:48:40.685Z,100256.22
2023-03-04T09:51:23.039Z,100260.31
2023-03-04T09:53:56.290Z,100264.88
2023-03-04T09:56:26.264Z,100258.97
2023-03-04T09:59:14.466Z,100258.22
2023-03-04T10:01:53.523Z,100246.66
2023-03-04T10:04:30.460Z,100246.88
2023-03-04T10:06:57.624Z,100250.59
2023-03-04T10:09:49.835Z,100244.09
2023-03-04T10:12:21.518Z,100240.50
2023-03-04T10:15:00.633Z,100240.69
2023-03-04T10:17:47.041Z,100243.38
2023-03-04T10:20:45.356Z,100237.38
2023-03-04T10:23:19.274Z,100229.78
2023-03-04T10:25:46.970Z,100237.75
2023-03-04T10:28:18.972Z,100222.22
2023-03-04T10:31:22.922Z,100235.81
2023-03-04T10:33:50.165Z,100237.84
2023-03-04T10:36:30.001Z,100227.81
2023-03-04T10:39:10.708Z,100223.25
2023-03-04T10:41:42.265Z,100208.59
2023-03-04T10:44:09.410Z,100222.88
2023-03-04T10:46:40.117Z,100211.88
2023-03-04T10:49:09.661Z,100208.16
2023-03-04T10:52:20.976Z,100196.53
2023-03-04T10:54:52.305Z,100193.78
2023-03-04T10:57:23.332Z,100205.72
2023-03-04T10:59:56.815Z,100186.63
2023-03-04T11:02:41.747Z,100191.72
2023-03-04T11:05:25.715Z,100184.97
2023-03-04T11:07:59.687Z,100180.13
2023-03-04T11:10:42.806Z,100178.81
2023-03-04T11:13:23.427Z,100162.25
2023-03-04T11:15:53.180Z,100181.59
2023-03-04T11:18:27.190Z,100168.47
2023-03-04T11:20:57.738Z,100172.19
2023-03-04T11:23:33.496Z,100177.84
2023-03-04T11:26:10.392Z,100178.16
2023-03-04T11:29:07.867Z,100169.19
2023-03-04T11:31:43.352Z,100180.81
2023-03-04T11:34:17.518Z,100176.34
2023-03-04T11:37:03.693Z,100158.16
2023-03-04T11:39:36.849Z,100158.75
2023-03-04T11:42:29.900Z,100163.66
2023-03-04T11:44:56.999Z,100151.84
2023-03-04T11:47:33.221Z,100146.06
2023-03-04T11:50:05.701Z,100154.00
2023-03-04T11:53:01.682Z,100142.56
2023-03-04T11:55:40.320Z,100128.50
2023-03-04T11:58:43.898Z,100129.38
2023-03-04T12:01:20.297Z,100125.09
2023-03-04T12:04:25.008Z,100120.88
2023-03-04T12:07:19.645Z,100118.94
2023-03-04T12:09:46.650Z,100111.09
2023-03-04T12:12:43.655Z,100112.91
2023-03-04T12:15:25.189Z,100104.56
2023-03-04T12:18:10.346Z,100104.44
2023-03-04T12:20:58.913Z,100097.97
2023-03-04T12:23:40.572Z,100099.56
2023-03-04T12:26:30.961Z,100104.53
2023-03-04T12:29:04.834Z,100090.25
2023-03-04T12:31:36.721Z,100084.47
2023-03-04T12:34:24.878Z,100084.03
2023-03-04T12:37:17.026Z,100082.16
2023-03-04T12:40:00.359Z,100078.53
2023-03-04T12:42:38.094Z,100080.81
2023-03-04T12:45:35.700Z,100069.06
2023-03-04T12:48:02.690Z,100062.19
2023-03-04T12:51:01.631Z,100058.38
2023-03-04T12:53:47.107Z,100051.75
2023-03-04T12:56:48.858Z,100055.13
2023-03-04T12:59:18.607Z,100047.84
2023-03-04T13:02:07.294Z,100051.28
2023-03-04T13:04:40.414Z,100055.09
2023-03-04T13:07:30.205Z,100047.19
2023-03-04T13:10:05.126Z,100043.91
2023-03-04T13:13:04.295Z,100038.09
2023-03-04T13:15:38.360Z,100022.69
2023-03-04T13:18:20.187Z,100024.16
2023-03-04T13:20:47.426Z,100020.66
2023-03-04T13:23:14.262Z,100019.53
2023-03-04T13:25:48.009Z,100007.47
2023-03-04T13:28:21.281Z,100005.00
2023-03-04T13:30:55.745Z,99998.16
2023-03-04T13:33:22.831Z,99996.66
2023-03-04T13:35:50.102Z,99987.16
2023-03-04T13:38:24.317Z,99992.22
2023-03-04T13:41:00.380Z,99984.59
2023-03-04T13:43:56.277Z,99983.22
2023-03-04T13:46:24.107Z,99972.56
2023-03-04T13:48:51.083Z,99967.94
2023-03-04T13:51:30.461Z,99979.56
2023-03-04T13:54:00.205Z,99978.94
2023-03-04T13:56:34.453Z,99971.75
2023-03-04T13:59:15.316Z,99970.78
2023-03-04T14:01:45.079Z,99962.69
2023-03-04T14:04:19.555Z,99969.00
2023-03-04T14:06:51.226Z,99969.09
2023-03-04T14:09:29.930Z,99966.69
2023-03-04T14:12:02.609Z,99967.53
2023-03-04T14:14:43.843Z,99952.00
2023-03-04T14:17:19.996Z,99957.91
2023-03-04T14:19:49.776Z,99956.59
2023-03-04T14:22:38.778Z,99951.00
2023-03-04T14:25:14.820Z,99956.72
2023-03-04T14:27:42.125Z,99950.84
2023-03-04T14:30:31.883Z,99949.16
2023-03-04T14:33:09.444Z,99957.09
2023-03-04T14:35:36.614Z,99955.91
2023-03-04T14:38:15.235Z,99958.03
2023-03-04T14:40:46.466Z,99953.59
2023-03-04T14:43:18.424Z,99958.34
2023-03-04T14:45:47.171Z,99964.34
2023-03-04T14:48:26.071Z,99957.28
2023-03-04T14:50:54.848Z,99958.88
2023-03-04T14:53:25.108Z,99950.31
2023-03-04T14:56:06.768Z,99959.63
2023-03-04T14:58:36.032Z,99961.63
2023-03-04T15:01:13.223Z,99963.59
2023-03-04T15:03:44.301Z,99965.91
2023-03-04T15:06:22.736Z,99962.75
2023-03-04T15:09:05.699Z,99957.28
2023-03-04T15:11:56.046Z,99957.28
2023-03-04T15:14:50.267Z,99958.22
2023-03-04T15:17:29.424Z,99957.19
2023-03-04T15:20:25.107Z,99956.63
2023-03-04T15:22:51.798Z,99969.44
2023-03-04T15:25:20.452Z,99961.16
2023-03-04T15:27:48.848Z,99967.19
2023-03-04T15:30:20.205Z,99959.41
2023-03-04T15:32:47.533Z,99967.34
2023-03-04T15:35:16.031Z,99967.31
2023-03-04T15:37:43.341Z,99964.88
2023-03-04T15:40:20.762Z,99958.56
2023-03-04T15:42:47.534Z,99953.66
2023-03-04T15:45:22.729Z,99962.91
2023-03-04T15:47:49.614Z,99961.06
2023-03-04T15:50:18.721Z,99971.41
2023-03-04T15:52:46.493Z,99968.97
2023-03-04T15:55:19.625Z,99978.88
2023-03-04T15:57:49.897Z,99980.78
2023-03-04T16:00:17.871Z,99981.53
2023-03-04T16:02:44.693Z,99970.78
2023-03-04T16:05:12.218Z,99967.34
2023-03-04T16:07:42.618Z,99961.50
2023-03-04T16:10:30.705Z,99968.25
2023-03-04T16:12:57.690Z,99960.53
2023-03-04T16:15:29.844Z,99955.47
2023-03-04T16:17:57.402Z,99965.59
2023-03-04T16:20:28.960Z,99959.44
2023-03-04T16:22:59.652Z,99961.56
2023-03-04T16:25:27.607Z,99960.06
2023-03-04T16:27:59.074Z,99970.84
2023-03-04T16:30:26.950Z,99976.09
2023-03-04T16:32:54.036Z,99970.13
2023-03-04T16:35:25.193Z,99971.69
2023-03-04T16:37:52.357Z,99980.81
2023-03-04T16:40:29.228Z,99976.56
2023-03-04T16:42:56.204Z,99974.44
2023-03-04T16:45:27.113Z,99985.09
2023-03-04T16:47:54.221Z,99986.28
2023-03-04T16:50:27.251Z,99982.03
2023-03-04T16:52:55.453Z,99976.66
2023-03-04T16:55:30.414Z,99975.59
2023-03-04T16:58:00.362Z,99978.22
2023-03-04T17:00:29.077Z,99978.72
2023-03-04T17:03:01.044Z,99979.16
2023-03-04T17:05:32.320Z,99972.84
2023-03-04T17:07:59.132Z,99979.78
2023-03-04T17:10:26.360Z,99971.28
2023-03-04T17:12:56.095Z,99975.44
2023-03-04T17:15:23.174Z,99982.75
2023-03-04T17:17:52.228Z,99988.00
2023-03-04T17:20:19.498Z,99986.91
2023-03-04T17:22:46.477Z,99991.06
2023-03-04T17:25:13.687Z,99984.75
2023-03-04T17:27:40.650Z,100002.50
2023-03-04T17:30:11.430Z,99997.31
2023-03-04T17:32:39.953Z,99993.94
2023-03-04T17:35:08.525Z,99994.16
2023-03-04T17:37:35.562Z,99995.72
2023-03-04T17:40:08.766Z,99991.31
2023-03-04T17:42:35.578Z,99994.94
2023-03-04T17:45:02.705Z,99992.91
2023-03-04T17:47:29.580Z,99996.91
2023-03-04T17:49:56.685Z,99992.75
2023-03-04T17:52:23.493Z,99985.19
2023-03-04T17:54:50.759Z,99995.94
2023-03-04T17:57:17.563Z,99991.44
2023-03-04T17:59:44.596Z,99996.47
2023-03-04T18:02:15.947Z,99997.63
2023-03-04T18:04:45.966Z,99993.59
2023-03-04T18:07:16.067Z,100001.56
2023-03-04T18:09:44.443Z,100004.34
2023-03-04T18:12:11.240Z,100003.94
2023-03-04T18:14:38.358Z,99995.50
2023-03-04T18:17:05.177Z,100013.84
2023-03-04T18:19:32.348Z,100008.47
2023-03-04T18:21:59.161Z,100022.75
2023-03-04T18:24:26.215Z,100019.72
2023-03-04T18:26:53.081Z,100019.84
2023-03-04T18:29:20.128Z,100020.94
2023-03-04T18:31:47.030Z,100022.53
2023-03-04T18:34:14.107Z,100019.41
2023-03-04T18:36:41.552Z,100032.00
2023-03-04T18:39:09.420Z,100035.38
2023-03-04T18:41:36.276Z,100027.19
2023-03-04T18:44:04.973Z,100038.38
2023-03-04T18:46:40.918Z,100033.84
2023-03-04T18:49:08.993Z,100037.16
2023-03-04T18:51:35.778Z,100055.94
2023-03-04T18:54:03.022Z,100050.88
2023-03-04T18:56:40.068Z,100046.81
2023-03-04T18:59:21.739Z,100057.47
2023-03-04T19:01:51.269Z,100052.56
2023-03-04T19:04:20.136Z,100057.31
2023-03-04T19:06:46.968Z,100055.56
2023-03-04T19:09:14.132Z,100049.03
2023-03-04T19:11:40.961Z,100061.31
2023-03-04T19:14:08.158Z,100059.16
2023-03-04T19:16:35.787Z,100052.53
2023-03-04T19:19:05.746Z,100061.09
2023-03-04T19:21:38.225Z,100064.56
2023-03-04T19:24:06.419Z,100065.34
2023-03-04T19:26:33.802Z,100073.63
2023-03-04T19:29:01.466Z,100067.69
2023-03-04T19:31:28.560Z,100063.31
2023-03-04T19:33:56.200Z,100053.31
2023-03-04T19:36:23.390Z,100069.72
2023-03-04T19:38:51.104Z,100063.06
2023-03-04T19:41:18.375Z,100060.56
2023-03-04T19:43:46.087Z,100057.13
2023-03-04T19:46:13.226Z,100068.50
2023-03-04T19:48:41.245Z,100069.41
2023-03-04T19:51:15.874Z,100068.75
2023-03-04T19:53:43.106Z,100067.00
2023-03-04T19:56:10.041Z,100071.34
2023-03-04T19:58:37.245Z,100070.22
2023-03-04T20:01:04.570Z,100067.34
2023-03-04T20:03:31.819Z,100062.34
2023-03-04T20:06:03.413Z,100068.38
2023-03-04T20:08:30.438Z,100070.38
2023-03-04T20:10:57.251Z,100075.44
2023-03-04T20:13:24.364Z,100068.47
2023-03-04T20:15:51.193Z,100074.53
2023-03-04T20:18:18.428Z,100076.41
2023-03-04T20:20:45.197Z,100073.78
2023-03-04T20:23:12.335Z,100083.41
2023-03-04T20:25:39.482Z,100072.13
2023-03-04T20:28:06.576Z,100081.00
2023-03-04T20:30:33.326Z,100083.56
2023-03-04T20:33:00.373Z,100080.13
2023-03-04T20:35:27.325Z,100076.09
2023-03-04T20:37:54.436Z,100081.44
2023-03-04T20:40:21.317Z,100080.63
2023-03-04T20:42:48.416Z,100075.63
2023-03-04T20:45:15.313Z,100066.94
2023-03-04T20:47:42.350Z,100065.41
2023-03-04T20:50:09.695Z,100064.44
2023-03-04T20:52:36.773Z,100064.97
2023-03-04T20:55:03.965Z,100067.91
2023-03-04T20:57:31.001Z,100072.84
2023-03-04T20:59:57.795Z,100077.13
2023-03-04T21:02:25.483Z,100071.00
2023-03-04T21:04:52.402Z,100061.63
2023-03-04T21:07:19.538Z,100077.34
2023-03-04T21:09:46.584Z,100066.78
2023-03-04T21:12:14.593Z,100066.94
2023-03-04T21:14:41.513Z,100059.13
2023-03-04T21:17:09.687Z,100065.28
2023-03-04T21:19:40.165Z,100066.16
2023-03-04T21:22:07.885Z,100069.06
2023-03-04T21:24:36.161Z,100062.09
2023-03-04T21:27:04.554Z,100065.50
2023-03-04T21:29:31.786Z,100059.50
2023-03-04T21:32:20.787Z,100066.53
2023-03-04T21:34:51.897Z,100061.44
2023-03-04T21:37:20.392Z,100057.28
2023-03-04T21:39:47.340Z,100060.47
2023-03-04T21:42:14.454Z,100064.13
2023-03-04T21:44:50.454Z,100059.88
2023-03-04T21:47:21.492Z,100056.56
2023-03-04T21:49:48.360Z,100056.16
2023-03-04T21:52:16.900Z,100058.78
2023-03-04T21:54:43.804Z,100063.31
2023-03-04T21:57:11.322Z,100071.00
2023-03-04T21:59:38.869Z,100066.63
2023-03-04T22:02:07.162Z,100071.53
2023-03-04T22:04:33.997Z,100072.94
2023-03-04T22:07:02.036Z,100074.94
2023-03-04T22:09:29.052Z,100081.13
2023-03-04T22:11:56.272Z,100073.56
2023-03-04T22:14:23.146Z,100071.97
2023-03-04T22:16:55.617Z,100079.16
2023-03-04T22:19:27.969Z,100066.09
2023-03-04T22:21:55.049Z,100075.50
2023-03-04T22:24:22.422Z,100073.16
2023-03-04T22:26:49.584Z,100076.69
2023-03-04T22:31:45.036Z,100076.06
2023-03-04T22:34:14.833Z,100078.06
2023-03-04T22:36:43.964Z,100067.47
2023-03-04T22:39:14.111Z,100080.72
2023-03-04T22:41:41.931Z,100084.56
2023-03-04T22:44:08.951Z,100084.88
2023-03-04T22:46:38.386Z,100088.38
2023-03-04T22:49:10.412Z,100090.94
2023-03-04T22:51:38.882Z,100088.38
2023-03-04T22:54:05.661Z,100077.25
2023-03-04T22:56:33.374Z,100087.72
2023-03-04T22:59:00.292Z,100090.16
2023-03-04T23:01:27.464Z,100084.84
2023-03-04T23:03:54.247Z,100085.84
2023-03-04T23:06:25.192Z,100084.84
2023-03-04T23:08:52.560Z,100089.47
2023-03-04T23:11:39.864Z,100085.91
2023-03-04T23:14:08.488Z,100095.56
2023-03-04T23:16:39.243Z,100099.03
2023-03-04T23:19:06.787Z,100097.44
2023-03-04T23:21:34.637Z,100100.31
2023-03-04T23:24:03.032Z,100100.22
2023-03-04T23:26:36.162Z,100090.81
2023-03-04T23:29:05.153Z,100092.75
2023-03-04T23:31:33.783Z,100104.78
2023-03-04T23:34:01.808Z,100102.91
2023-03-04T23:36:33.790Z,100100.16
2023-03-04T23:39:01.060Z,100108.59
2023-03-04T23:41:29.942Z,100107.06
2023-03-04T23:43:58.988Z,100109.59
2023-03-04T23:46:26.809Z,100113.38
2023-03-04T23:48:53.890Z,100121.88
2023-03-04T23:51:24.055Z,100117.50
2023-03-04T23:53:51.466Z,100116.72
2023-03-04T23:56:24.353Z,100119.47
2023-03-04T23:58:51.420Z,100125.81
